Otis, Colorado
Current Conditions -  °F | °C
As of 9:53 AM on Monday 22 Dec 2014 (Local Time) from KAKO Reporting Station
Clear Clear  
Wind Chill: 25°   Ceiling: Unl
Heat Index: 33°   Visibility: 10mi
Dew Point: 25°   Wind: 9mph
Humidity: 72%   Direction: 290°WNW
Pressure: 29.71"   Gusts: NA
Location:  40.15°N, 102.96°W
Report Text: KAKO 221653Z AUTO 29008KT 10SM CLR 01/M04 A2971 RMK AO2 SLP070 T00061039
Loading
Personal Weather Stations






























Interactive Weather Map New forecast layout! Learn more

10-Day Weather Forecast

Advertisements
Track Severe Weather on mobile